createdAt,value
2017-10-04T00:01:58.088Z,92.80
2017-10-04T00:04:26.300Z,92.80
2017-10-04T00:06:53.730Z,92.80
2017-10-04T00:09:21.945Z,92.80
2017-10-04T00:11:49.382Z,92.70
2017-10-04T00:14:16.818Z,92.90
2017-10-04T00:16:45.026Z,92.60
2017-10-04T00:19:12.456Z,92.60
2017-10-04T00:21:39.888Z,92.70
2017-10-04T00:24:07.333Z,92.70
2017-10-04T00:26:34.763Z,92.70
2017-10-04T00:29:02.206Z,92.50
2017-10-04T00:31:29.629Z,92.40
2017-10-04T00:33:57.838Z,92.30
2017-10-04T00:36:25.280Z,92.30
2017-10-04T00:38:52.708Z,92.40
2017-10-04T00:41:20.908Z,92.30
2017-10-04T00:43:51.414Z,93.10
2017-10-04T00:46:19.688Z,92.50
2017-10-04T00:48:47.893Z,92.40
2017-10-04T00:51:15.332Z,92.40
2017-10-04T00:53:43.527Z,92.00
2017-10-04T00:56:10.955Z,92.00
2017-10-04T00:58:39.155Z,92.00
2017-10-04T01:01:06.588Z,91.90
2017-10-04T01:03:34.785Z,92.00
2017-10-04T01:06:02.229Z,92.00
2017-10-04T01:08:30.429Z,92.00
2017-10-04T01:11:01.736Z,92.00
2017-10-04T01:13:29.941Z,92.00
2017-10-04T01:15:57.379Z,92.00
2017-10-04T01:18:25.573Z,91.80
2017-10-04T01:20:53.013Z,91.80
2017-10-04T01:23:21.203Z,92.50
2017-10-04T01:25:48.640Z,92.50
2017-10-04T01:28:16.839Z,92.00
2017-10-04T01:30:44.260Z,92.50
2017-10-04T01:33:12.460Z,92.40
2017-10-04T01:35:39.912Z,92.40
2017-10-04T01:38:07.337Z,92.50
2017-10-04T01:40:34.814Z,92.60
2017-10-04T01:43:03.021Z,92.60
2017-10-04T01:45:30.445Z,92.60
2017-10-04T01:47:58.637Z,92.40
2017-10-04T01:50:26.071Z,92.30
2017-10-04T01:52:54.273Z,92.40
2017-10-04T01:55:21.709Z,92.30
2017-10-04T01:57:49.906Z,92.20
2017-10-04T02:00:17.327Z,92.20
2017-10-04T02:02:45.534Z,92.30
2017-10-04T02:05:12.957Z,92.20
2017-10-04T02:07:40.384Z,92.30
2017-10-04T02:10:07.821Z,92.50
2017-10-04T02:12:35.257Z,92.70
2017-10-04T02:15:02.685Z,92.50
2017-10-04T02:17:30.891Z,92.60
2017-10-04T02:19:58.316Z,92.60
2017-10-04T02:22:26.516Z,92.90
2017-10-04T02:24:53.936Z,93.20
2017-10-04T02:27:21.378Z,93.00
2017-10-04T02:29:48.804Z,93.00
2017-10-04T02:32:16.264Z,93.00
2017-10-04T02:34:43.698Z,92.90
2017-10-04T02:37:11.133Z,93.00
2017-10-04T02:39:39.332Z,93.10
2017-10-04T02:42:06.757Z,93.00
2017-10-04T02:44:34.186Z,93.10
2017-10-04T02:47:01.624Z,93.20
2017-10-04T02:49:29.052Z,93.20
2017-10-04T02:51:56.478Z,93.40
2017-10-04T02:54:23.926Z,93.60
2017-10-04T02:56:51.349Z,93.40
2017-10-04T02:59:18.782Z,93.50
2017-10-04T03:01:46.234Z,93.50
2017-10-04T03:04:13.691Z,93.60
2017-10-04T03:06:41.130Z,93.50
2017-10-04T03:09:09.340Z,93.30
2017-10-04T03:11:36.768Z,93.30
2017-10-04T03:14:04.979Z,93.20
2017-10-04T03:16:32.417Z,93.20
2017-10-04T03:19:04.684Z,93.30
2017-10-04T03:21:32.113Z,93.30
2017-10-04T03:23:59.544Z,93.30
2017-10-04T03:26:26.981Z,93.20
2017-10-04T03:28:55.189Z,93.20
2017-10-04T03:31:22.622Z,93.20
2017-10-04T03:33:50.064Z,93.20
2017-10-04T03:36:17.496Z,93.40
2017-10-04T03:38:44.920Z,93.50
2017-10-04T03:41:12.358Z,93.50
2017-10-04T03:43:42.610Z,93.20
2017-10-04T03:46:10.036Z,93.30
2017-10-04T03:48:37.477Z,93.30
2017-10-04T03:51:04.904Z,93.30
2017-10-04T03:53:32.338Z,93.30
2017-10-04T03:56:00.543Z,93.50
2017-10-04T03:58:28.030Z,93.50
2017-10-04T04:00:55.477Z,93.50
2017-10-04T04:03:22.909Z,93.60
2017-10-04T04:05:50.349Z,93.70
2017-10-04T04:08:18.535Z,93.70
2017-10-04T04:10:45.977Z,93.70
2017-10-04T04:13:14.172Z,94.10
2017-10-04T04:15:41.601Z,94.10
2017-10-04T04:18:09.805Z,94.30
2017-10-04T04:20:37.253Z,94.10
2017-10-04T04:23:04.685Z,94.20
2017-10-04T04:25:32.140Z,94.00
2017-10-04T04:28:03.285Z,93.90
2017-10-04T04:30:30.704Z,93.70
2017-10-04T04:32:58.142Z,93.70
2017-10-04T04:35:25.580Z,94.00
2017-10-04T04:38:04.874Z,94.30
2017-10-04T04:40:38.009Z,94.30
2017-10-04T04:43:06.493Z,94.20
2017-10-04T04:45:33.926Z,94.10
2017-10-04T04:48:02.129Z,93.90
2017-10-04T04:50:29.553Z,93.90
2017-10-04T04:52:57.772Z,93.80
2017-10-04T04:55:25.201Z,93.80
2017-10-04T04:57:53.402Z,93.60
2017-10-04T05:00:20.838Z,93.60
2017-10-04T05:02:48.267Z,93.70
2017-10-04T05:05:15.719Z,93.50
2017-10-04T05:07:45.653Z,93.60
2017-10-04T05:10:13.068Z,93.60
2017-10-04T05:12:40.506Z,93.50
2017-10-04T05:15:07.937Z,93.60
2017-10-04T05:17:35.401Z,93.80
2017-10-04T05:20:03.602Z,93.80
2017-10-04T05:22:31.028Z,93.80
2017-10-04T05:24:58.464Z,93.80
2017-10-04T05:27:27.672Z,93.80
2017-10-04T05:29:55.881Z,93.60
2017-10-04T05:32:23.320Z,93.60
2017-10-04T05:34:50.783Z,93.60
2017-10-04T05:37:18.203Z,93.60
2017-10-04T05:39:45.637Z,93.70
2017-10-04T05:42:15.064Z,93.70
2017-10-04T05:44:43.263Z,93.80
2017-10-04T05:47:10.689Z,93.80
2017-10-04T05:49:38.157Z,94.00
2017-10-04T05:52:05.587Z,93.90
2017-10-04T05:54:33.049Z,93.90
2017-10-04T05:57:00.464Z,93.90
2017-10-04T05:59:42.777Z,93.90
2017-10-04T06:02:14.068Z,93.80
2017-10-04T06:04:41.516Z,93.90
2017-10-04T06:07:08.946Z,93.90
2017-10-04T06:09:41.261Z,93.80
2017-10-04T06:12:09.461Z,93.90
2017-10-04T06:14:36.891Z,93.90
2017-10-04T06:17:05.084Z,93.90
2017-10-04T06:19:32.521Z,93.90
2017-10-04T06:22:00.725Z,94.10
2017-10-04T06:24:28.158Z,94.10
2017-10-04T06:26:56.354Z,93.70
2017-10-04T06:29:30.717Z,93.70
2017-10-04T06:31:58.159Z,93.60
2017-10-04T06:34:25.604Z,93.60
2017-10-04T06:36:53.029Z,93.70
2017-10-04T06:39:21.231Z,93.80
2017-10-04T06:41:48.668Z,93.70
2017-10-04T06:44:16.105Z,93.70
2017-10-04T06:46:44.303Z,93.60
2017-10-04T06:49:11.749Z,93.60
2017-10-04T06:51:39.956Z,93.50
2017-10-04T06:54:07.397Z,93.50
2017-10-04T06:56:34.836Z,93.20
2017-10-04T06:59:04.023Z,92.90
2017-10-04T07:01:32.245Z,93.00
2017-10-04T07:03:59.681Z,93.10
2017-10-04T07:06:27.125Z,92.70
2017-10-04T07:08:54.565Z,92.80
2017-10-04T07:11:46.964Z,92.70
2017-10-04T07:14:14.395Z,92.60
2017-10-04T07:16:48.060Z,92.50
2017-10-04T07:19:15.502Z,92.30
2017-10-04T07:21:42.940Z,92.30
2017-10-04T07:24:10.384Z,92.50
2017-10-04T07:26:37.838Z,92.50
2017-10-04T07:29:05.295Z,92.40
2017-10-04T07:31:32.782Z,92.50
2017-10-04T07:34:00.212Z,92.60
2017-10-04T07:36:27.653Z,92.70
2017-10-04T07:38:55.099Z,92.20
2017-10-04T07:41:23.312Z,91.80
2017-10-04T07:43:50.735Z,91.80
2017-10-04T07:46:19.201Z,91.90
2017-10-04T07:48:47.408Z,91.20
2017-10-04T07:51:14.865Z,91.20
2017-10-04T07:53:42.302Z,91.10
2017-10-04T07:56:09.736Z,90.50
2017-10-04T07:58:37.932Z,88.00
2017-10-04T08:01:05.368Z,88.00
2017-10-04T08:03:33.564Z,86.00
2017-10-04T08:06:00.993Z,86.70
2017-10-04T08:08:28.436Z,85.40
2017-10-04T08:10:55.874Z,86.10
2017-10-04T08:13:23.330Z,86.90
2017-10-04T08:15:50.770Z,86.90
2017-10-04T08:18:18.203Z,85.50
2017-10-04T08:20:45.641Z,84.50
2017-10-04T08:23:13.081Z,84.20
2017-10-04T08:25:40.545Z,84.70
2017-10-04T08:28:07.992Z,84.50
2017-10-04T08:30:35.417Z,86.40
2017-10-04T08:33:02.873Z,84.70
2017-10-04T08:35:30.315Z,83.30
2017-10-04T08:37:57.761Z,84.20
2017-10-04T08:40:25.201Z,83.80
2017-10-04T08:42:53.416Z,85.00
2017-10-04T08:45:20.853Z,84.90
2017-10-04T08:47:56.235Z,83.40
2017-10-04T08:50:23.673Z,83.30
2017-10-04T08:52:51.123Z,82.80
2017-10-04T08:55:21.913Z,82.80
2017-10-04T08:57:50.195Z,80.90
2017-10-04T09:00:18.403Z,80.80
2017-10-04T09:02:45.847Z,81.40
2017-10-04T09:05:25.201Z,79.60
2017-10-04T09:07:52.659Z,79.70
2017-10-04T09:10:20.101Z,79.70
2017-10-04T09:12:47.525Z,80.80
2017-10-04T09:15:14.991Z,80.00
2017-10-04T09:17:43.190Z,76.80
2017-10-04T09:20:10.629Z,76.70
2017-10-04T09:22:38.064Z,74.40
2017-10-04T09:25:05.515Z,73.20
2017-10-04T09:27:32.979Z,73.50
2017-10-04T09:30:00.431Z,74.70
2017-10-04T09:32:27.853Z,74.10
2017-10-04T09:34:55.295Z,72.30
2017-10-04T09:37:22.737Z,74.10
2017-10-04T09:39:50.178Z,73.60
2017-10-04T09:42:18.384Z,78.30
2017-10-04T09:44:49.906Z,78.30
2017-10-04T09:47:18.105Z,81.30
2017-10-04T09:49:45.536Z,81.30
2017-10-04T09:52:13.743Z,75.80
2017-10-04T09:54:41.179Z,75.70
2017-10-04T09:57:08.613Z,78.70
2017-10-04T09:59:36.054Z,80.30
2017-10-04T10:02:03.496Z,77.00
2017-10-04T10:04:30.934Z,75.80
2017-10-04T10:06:58.389Z,78.40
2017-10-04T10:09:25.812Z,76.30
2017-10-04T10:11:54.019Z,78.00
2017-10-04T10:14:21.449Z,77.80
2017-10-04T10:16:54.172Z,78.80
2017-10-04T10:19:20.228Z,77.30
2017-10-04T10:21:47.673Z,76.50
2017-10-04T10:24:15.094Z,79.40
2017-10-04T10:26:42.532Z,78.60
2017-10-04T10:29:09.974Z,76.90
2017-10-04T10:31:38.160Z,76.30
2017-10-04T10:34:05.613Z,76.30
2017-10-04T10:36:33.809Z,80.10
2017-10-04T10:39:01.250Z,80.10
2017-10-04T10:41:28.677Z,78.50
2017-10-04T10:43:56.108Z,78.70
2017-10-04T10:46:23.552Z,79.00
2017-10-04T10:48:50.977Z,79.30
2017-10-04T10:51:18.539Z,76.30
2017-10-04T10:53:45.986Z,80.60
2017-10-04T10:56:13.489Z,80.00
2017-10-04T10:58:41.936Z,80.40
2017-10-04T11:01:12.391Z,77.10
2017-10-04T11:03:40.050Z,80.20
2017-10-04T11:06:07.549Z,81.20
2017-10-04T11:08:35.031Z,84.10
2017-10-04T11:11:02.547Z,80.40
2017-10-04T11:13:30.005Z,75.80
2017-10-04T11:15:58.500Z,72.50
2017-10-04T11:18:25.929Z,73.60
2017-10-04T11:21:05.940Z,74.60
2017-10-04T11:23:34.340Z,73.10
2017-10-04T11:26:02.528Z,73.10
2017-10-04T11:28:29.973Z,73.80
2017-10-04T11:30:57.413Z,75.10
2017-10-04T11:33:24.853Z,75.30
2017-10-04T11:35:53.062Z,72.70
2017-10-04T11:38:20.497Z,72.60
2017-10-04T11:40:47.926Z,77.20
2017-10-04T11:43:16.128Z,75.50
2017-10-04T11:45:43.560Z,75.00
2017-10-04T11:48:11.765Z,70.40
2017-10-04T11:50:39.196Z,70.40
2017-10-04T11:53:07.410Z,70.90
2017-10-04T11:55:34.837Z,70.80
2017-10-04T11:58:03.060Z,69.90
2017-10-04T12:00:30.502Z,69.90
2017-10-04T12:02:57.924Z,69.10
2017-10-04T12:05:25.355Z,72.00
2017-10-04T12:07:53.617Z,72.30
2017-10-04T12:10:22.012Z,71.40
2017-10-04T12:12:49.444Z,74.00
2017-10-04T12:15:16.889Z,73.70
2017-10-04T12:17:44.341Z,70.40
2017-10-04T12:20:11.768Z,71.60
2017-10-04T12:22:39.197Z,71.70
2017-10-04T12:25:06.642Z,72.60
2017-10-04T12:27:34.075Z,73.90
2017-10-04T12:30:01.651Z,71.70
2017-10-04T12:32:29.088Z,67.60
2017-10-04T12:34:56.545Z,72.80
2017-10-04T12:37:23.997Z,70.60
2017-10-04T12:40:04.080Z,70.10
2017-10-04T12:42:31.514Z,67.00
2017-10-04T12:44:58.997Z,68.70
2017-10-04T12:47:26.430Z,72.50
2017-10-04T12:49:53.874Z,69.40
2017-10-04T12:52:21.300Z,70.30
2017-10-04T12:54:48.746Z,68.40
2017-10-04T12:57:16.942Z,65.80
2017-10-04T12:59:44.407Z,65.30
2017-10-04T13:02:11.837Z,71.70
2017-10-04T13:04:42.093Z,66.30
2017-10-04T13:07:10.273Z,71.50
2017-10-04T13:09:37.717Z,71.50
2017-10-04T13:12:05.157Z,68.40
2017-10-04T13:14:33.371Z,66.50
2017-10-04T13:17:01.718Z,67.80
2017-10-04T13:19:34.590Z,67.70
2017-10-04T13:22:13.768Z,69.40
2017-10-04T13:24:41.381Z,69.20
2017-10-04T13:27:09.577Z,71.00
2017-10-04T13:29:37.034Z,70.80
2017-10-04T13:32:04.460Z,75.80
2017-10-04T13:34:31.954Z,70.30
2017-10-04T13:36:59.374Z,66.80
2017-10-04T13:39:27.571Z,70.90
2017-10-04T13:41:55.017Z,70.90
2017-10-04T13:44:23.214Z,68.60
2017-10-04T13:46:50.753Z,68.60
2017-10-04T13:49:18.210Z,65.30
2017-10-04T13:51:46.476Z,68.20
2017-10-04T13:54:13.901Z,68.20
2017-10-04T13:56:41.340Z,70.70
2017-10-04T13:59:16.658Z,65.90
2017-10-04T14:01:44.094Z,66.10
2017-10-04T14:04:12.313Z,73.30
2017-10-04T14:06:39.781Z,73.30
2017-10-04T14:09:07.220Z,73.00
2017-10-04T14:11:34.672Z,69.30
2017-10-04T14:14:08.305Z,71.70
2017-10-04T14:16:35.732Z,74.20
2017-10-04T14:19:03.937Z,73.90
2017-10-04T14:21:31.401Z,73.90
2017-10-04T14:23:58.853Z,75.30
2017-10-04T14:26:26.319Z,73.30
2017-10-04T14:31:50.783Z,72.40
2017-10-04T14:34:18.226Z,72.30
2017-10-04T14:36:45.732Z,73.40
2017-10-04T14:39:13.198Z,72.90
2017-10-04T14:41:40.640Z,70.90
2017-10-04T14:44:08.102Z,76.30
2017-10-04T14:46:35.585Z,75.20
2017-10-04T14:49:03.013Z,75.50
2017-10-04T14:51:30.466Z,75.20
2017-10-04T14:53:57.913Z,74.20
2017-10-04T14:56:25.358Z,77.30
2017-10-04T14:58:52.820Z,76.70
2017-10-04T15:01:25.020Z,75.90
2017-10-04T15:03:52.500Z,78.80
2017-10-04T15:06:19.949Z,77.00
2017-10-04T15:08:47.448Z,75.90
2017-10-04T15:11:14.912Z,75.90
2017-10-04T15:13:42.386Z,73.10
2017-10-04T15:16:09.860Z,74.70
2017-10-04T15:18:37.312Z,74.10
2017-10-04T15:21:08.702Z,70.60
2017-10-04T15:23:36.919Z,74.90
2017-10-04T15:26:04.423Z,74.70
2017-10-04T15:28:56.725Z,78.00
2017-10-04T15:31:24.168Z,78.00
2017-10-04T15:33:51.646Z,77.20
2017-10-04T15:36:19.098Z,77.30
2017-10-04T15:38:46.559Z,76.90
2017-10-04T15:41:14.017Z,78.10
2017-10-04T15:43:41.503Z,76.40
2017-10-04T15:46:08.975Z,78.40
2017-10-04T15:48:37.183Z,77.70
2017-10-04T15:51:05.414Z,79.30
2017-10-04T15:53:32.853Z,79.30
2017-10-04T15:56:00.476Z,79.80
2017-10-04T15:58:27.927Z,78.50
2017-10-04T16:00:55.394Z,77.10
2017-10-04T16:03:22.832Z,80.20
2017-10-04T16:05:57.302Z,80.20
2017-10-04T16:08:24.756Z,79.90
2017-10-04T16:10:52.255Z,78.90
2017-10-04T16:13:20.457Z,80.90
2017-10-04T16:15:47.908Z,80.80
2017-10-04T16:18:46.839Z,80.60
2017-10-04T16:21:15.096Z,81.50
2017-10-04T16:23:50.549Z,81.50
2017-10-04T16:26:18.006Z,83.00
2017-10-04T16:28:49.316Z,82.80
2017-10-04T16:31:16.757Z,81.20
2017-10-04T16:33:45.760Z,81.90
2017-10-04T16:36:13.214Z,81.90
2017-10-04T16:38:40.644Z,82.20
2017-10-04T16:41:08.107Z,84.10
2017-10-04T16:43:35.588Z,83.10
2017-10-04T16:46:03.788Z,79.90
2017-10-04T16:48:32.233Z,79.80
2017-10-04T16:51:00.441Z,79.80
2017-10-04T16:53:27.886Z,79.80
2017-10-04T16:55:55.361Z,80.50
2017-10-04T16:58:22.813Z,78.70
2017-10-04T17:00:50.286Z,77.00
2017-10-04T17:03:17.713Z,80.10
2017-10-04T17:05:49.276Z,77.00
2017-10-04T17:08:16.734Z,77.20
2017-10-04T17:10:44.173Z,76.70
2017-10-04T17:13:16.033Z,80.60
2017-10-04T17:15:44.252Z,81.50
2017-10-04T17:18:11.711Z,81.50
2017-10-04T17:20:49.445Z,80.00
2017-10-04T17:23:17.659Z,81.60
2017-10-04T17:25:45.102Z,81.60
2017-10-04T17:28:12.583Z,79.50
2017-10-04T17:30:40.032Z,78.70
2017-10-04T17:33:07.497Z,78.80
2017-10-04T17:35:41.951Z,77.10
2017-10-04T17:38:09.392Z,78.60
2017-10-04T17:40:36.843Z,78.70
2017-10-04T17:43:04.291Z,82.30
2017-10-04T17:45:31.727Z,80.50
2017-10-04T17:47:59.240Z,83.20
2017-10-04T17:50:26.665Z,84.20
2017-10-04T17:52:54.126Z,82.40
2017-10-04T17:55:21.564Z,79.90
2017-10-04T17:57:56.203Z,80.10
2017-10-04T18:00:23.708Z,81.50
2017-10-04T18:02:51.910Z,83.60
2017-10-04T18:05:19.357Z,84.00
2017-10-04T18:07:47.829Z,82.00
2017-10-04T18:10:15.282Z,83.80
2017-10-04T18:12:43.488Z,83.60
2017-10-04T18:15:10.926Z,83.40
2017-10-04T18:17:38.359Z,81.40
2017-10-04T18:20:05.789Z,82.00
2017-10-04T18:22:33.269Z,82.20
2017-10-04T18:25:00.697Z,82.20
2017-10-04T18:27:28.131Z,82.70
2017-10-04T18:29:56.578Z,78.70
2017-10-04T18:32:24.802Z,78.10
2017-10-04T18:34:52.420Z,78.30
2017-10-04T18:37:19.866Z,79.00
2017-10-04T18:39:48.067Z,77.30
2017-10-04T18:42:16.530Z,77.30
2017-10-04T18:44:44.737Z,78.90
2017-10-04T18:47:12.932Z,79.30
2017-10-04T18:49:40.360Z,79.20
2017-10-04T18:52:07.800Z,77.40
2017-10-04T18:54:35.252Z,76.60
2017-10-04T18:57:03.490Z,77.70
2017-10-04T18:59:30.941Z,77.60
2017-10-04T19:01:58.401Z,76.10
2017-10-04T19:04:25.847Z,77.20
2017-10-04T19:06:53.321Z,77.40
2017-10-04T19:09:20.777Z,77.60
2017-10-04T19:11:49.300Z,77.30
2017-10-04T19:14:16.754Z,76.90
2017-10-04T19:16:44.963Z,77.00
2017-10-04T19:19:12.421Z,76.90
2017-10-04T19:21:39.854Z,77.20
2017-10-04T19:24:07.289Z,77.00
2017-10-04T19:26:34.763Z,77.90
2017-10-04T19:29:12.611Z,78.60
2017-10-04T19:31:40.068Z,78.80
2017-10-04T19:34:07.517Z,78.50
2017-10-04T19:36:34.987Z,78.30
2017-10-04T19:39:02.456Z,78.30
2017-10-04T19:41:29.907Z,79.70
2017-10-04T19:43:57.359Z,78.90
2017-10-04T19:46:24.836Z,79.30
2017-10-04T19:48:52.318Z,79.30
2017-10-04T19:51:20.526Z,78.70
2017-10-04T19:53:47.977Z,78.60
2017-10-04T19:56:15.431Z,79.20
2017-10-04T19:58:42.864Z,78.50
2017-10-04T20:01:10.304Z,79.20
2017-10-04T20:03:38.545Z,80.20
2017-10-04T20:06:05.993Z,80.00
2017-10-04T20:08:33.463Z,80.10
2017-10-04T20:11:00.926Z,80.20
2017-10-04T20:13:28.369Z,79.70
2017-10-04T20:15:55.814Z,79.90
2017-10-04T20:18:23.264Z,81.00
2017-10-04T20:20:50.718Z,81.10
2017-10-04T20:23:18.174Z,82.20
2017-10-04T20:25:45.614Z,82.70
2017-10-04T20:28:13.109Z,82.40
2017-10-04T20:30:40.548Z,81.80
2017-10-04T20:33:07.992Z,83.50
2017-10-04T20:35:35.444Z,81.70
2017-10-04T20:38:02.906Z,84.20
2017-10-04T20:40:30.347Z,82.80
2017-10-04T20:42:58.550Z,82.20
2017-10-04T20:45:27.109Z,82.20
2017-10-04T20:47:54.571Z,81.40
2017-10-04T20:50:22.017Z,81.70
2017-10-04T20:52:50.250Z,81.60
2017-10-04T20:55:17.697Z,81.50
2017-10-04T20:57:45.139Z,83.70
2017-10-04T21:00:12.596Z,84.50
2017-10-04T21:02:40.061Z,85.60
2017-10-04T21:05:07.525Z,84.60
2017-10-04T21:07:34.978Z,83.10
2017-10-04T21:10:02.437Z,81.40
2017-10-04T21:12:29.918Z,82.80
2017-10-04T21:14:57.369Z,81.60
2017-10-04T21:17:24.803Z,82.50
2017-10-04T21:19:52.258Z,82.60
2017-10-04T21:22:19.706Z,81.80
2017-10-04T21:24:47.171Z,83.00
2017-10-04T21:27:14.609Z,82.00
2017-10-04T21:29:42.062Z,83.10
2017-10-04T21:32:10.260Z,81.90
2017-10-04T21:34:37.697Z,81.90
2017-10-04T21:37:05.167Z,81.00
2017-10-04T21:39:32.605Z,81.80
2017-10-04T21:42:00.054Z,81.30
2017-10-04T21:44:27.502Z,81.20
2017-10-04T21:46:55.718Z,81.20
2017-10-04T21:49:23.152Z,81.20
2017-10-04T21:51:50.594Z,81.40
2017-10-04T21:54:18.817Z,81.90
2017-10-04T21:56:46.264Z,81.90
2017-10-04T21:59:13.696Z,82.10
2017-10-04T22:01:41.138Z,82.50
2017-10-04T22:04:09.332Z,81.80
2017-10-04T22:06:36.821Z,81.80
2017-10-04T22:09:04.330Z,81.30
2017-10-04T22:11:32.521Z,82.40
2017-10-04T22:13:59.967Z,82.40
2017-10-04T22:16:27.413Z,83.30
2017-10-04T22:18:56.610Z,83.40
2017-10-04T22:21:24.044Z,83.40
2017-10-04T22:23:51.529Z,81.40
2017-10-04T22:26:19.753Z,81.90
2017-10-04T22:28:47.196Z,81.90
2017-10-04T22:31:14.645Z,81.50
2017-10-04T22:33:42.076Z,81.40
2017-10-04T22:36:10.308Z,81.20
2017-10-04T22:38:37.742Z,81.10
2017-10-04T22:41:05.190Z,81.50
2017-10-04T22:43:32.618Z,81.10
2017-10-04T22:46:00.060Z,81.30
2017-10-04T22:48:27.560Z,81.70
2017-10-04T22:50:56.030Z,81.10
2017-10-04T22:53:23.456Z,81.70
2017-10-04T22:55:50.907Z,81.80
2017-10-04T22:58:18.378Z,81.90
2017-10-04T23:00:45.805Z,81.90
2017-10-04T23:03:13.237Z,81.60
2017-10-04T23:05:40.677Z,81.90
2017-10-04T23:08:08.134Z,81.60
2017-10-04T23:10:35.561Z,81.70
2017-10-04T23:13:03.771Z,82.00
2017-10-04T23:15:31.218Z,82.10
2017-10-04T23:17:58.672Z,81.80
2017-10-04T23:20:26.125Z,81.90
2017-10-04T23:22:53.577Z,82.20
2017-10-04T23:25:21.789Z,82.80
2017-10-04T23:27:49.275Z,82.80
2017-10-04T23:30:16.693Z,82.70
2017-10-04T23:32:44.181Z,82.30
2017-10-04T23:35:11.617Z,82.50
2017-10-04T23:37:39.063Z,82.90
2017-10-04T23:40:06.497Z,82.80
2017-10-04T23:42:33.962Z,83.00
2017-10-04T23:45:01.397Z,83.00
2017-10-04T23:47:28.852Z,83.00
2017-10-04T23:49:56.279Z,82.40
2017-10-04T23:52:23.748Z,82.80
2017-10-04T23:54:51.209Z,82.60
2017-10-04T23:57:18.663Z,82.60
2017-10-04T23:59:46.092Z,82.70
